sensor_id;sensor_type;location;lat;lon;timestamp;temperature;humidity
25668;DHT22;18003;-33.830;151.202;2023-03-31T00:02:06;20.70;96.10
25668;DHT22;18003;-33.830;151.202;2023-03-31T00:04:42;20.70;96.20
25668;DHT22;18003;-33.830;151.202;2023-03-31T00:07:10;20.70;95.50
25668;DHT22;18003;-33.830;151.202;2023-03-31T00:09:40;20.70;95.50
25668;DHT22;18003;-33.830;151.202;2023-03-31T00:12:12;20.70;95.90
25668;DHT22;18003;-33.830;151.202;2023-03-31T00:14:42;20.70;95.70
25668;DHT22;18003;-33.830;151.202;2023-03-31T00:17:12;20.70;95.80
25668;DHT22;18003;-33.830;151.202;2023-03-31T00:19:42;20.80;95.80
25668;DHT22;18003;-33.830;151.202;2023-03-31T00:22:12;20.80;95.50
25668;DHT22;18003;-33.830;151.202;2023-03-31T00:24:43;20.70;95.60
25668;DHT22;18003;-33.830;151.202;2023-03-31T00:27:13;20.80;95.60
25668;DHT22;18003;-33.830;151.202;2023-03-31T00:29:43;20.80;95.70
25668;DHT22;18003;-33.830;151.202;2023-03-31T00:32:14;20.80;95.70
25668;DHT22;18003;-33.830;151.202;2023-03-31T00:34:45;20.80;95.50
25668;DHT22;18003;-33.830;151.202;2023-03-31T00:37:15;20.80;95.70
25668;DHT22;18003;-33.830;151.202;2023-03-31T00:39:45;20.80;95.70
25668;DHT22;18003;-33.830;151.202;2023-03-31T00:42:15;20.80;95.40
25668;DHT22;18003;-33.830;151.202;2023-03-31T00:47:58;20.80;94.90
25668;DHT22;18003;-33.830;151.202;2023-03-31T00:50:25;20.80;95.40
25668;DHT22;18003;-33.830;151.202;2023-03-31T00:52:58;20.90;94.70
25668;DHT22;18003;-33.830;151.202;2023-03-31T00:55:31;20.80;95.10
25668;DHT22;18003;-33.830;151.202;2023-03-31T00:58:01;20.90;94.90
25668;DHT22;18003;-33.830;151.202;2023-03-31T01:00:31;20.90;95.00
25668;DHT22;18003;-33.830;151.202;2023-03-31T01:03:04;21.00;95.30
25668;DHT22;18003;-33.830;151.202;2023-03-31T01:05:45;21.00;95.10
25668;DHT22;18003;-33.830;151.202;2023-03-31T01:08:15;21.00;95.30
25668;DHT22;18003;-33.830;151.202;2023-03-31T01:10:48;21.00;95.20
25668;DHT22;18003;-33.830;151.202;2023-03-31T01:13:18;21.00;95.60
25668;DHT22;18003;-33.830;151.202;2023-03-31T01:15:49;21.00;95.20
25668;DHT22;18003;-33.830;151.202;2023-03-31T01:18:20;21.00;95.00
25668;DHT22;18003;-33.830;151.202;2023-03-31T01:38:18;21.10;94.80
25668;DHT22;18003;-33.830;151.202;2023-03-31T01:40:58;21.20;94.60
25668;DHT22;18003;-33.830;151.202;2023-03-31T01:43:36;21.20;93.40
25668;DHT22;18003;-33.830;151.202;2023-03-31T01:46:34;21.20;92.80
25668;DHT22;18003;-33.830;151.202;2023-03-31T01:54:47;21.20;93.50
25668;DHT22;18003;-33.830;151.202;2023-03-31T01:57:36;21.20;93.80
25668;DHT22;18003;-33.830;151.202;2023-03-31T02:00:12;21.30;92.90
25668;DHT22;18003;-33.830;151.202;2023-03-31T02:05:21;21.20;92.50
25668;DHT22;18003;-33.830;151.202;2023-03-31T02:08:02;21.20;91.90
25668;DHT22;18003;-33.830;151.202;2023-03-31T02:10:28;21.20;92.00
25668;DHT22;18003;-33.830;151.202;2023-03-31T02:12:58;21.20;92.90
25668;DHT22;18003;-33.830;151.202;2023-03-31T02:15:36;21.20;93.00
25668;DHT22;18003;-33.830;151.202;2023-03-31T02:18:08;21.30;93.00
25668;DHT22;18003;-33.830;151.202;2023-03-31T02:20:42;21.30;92.90
25668;DHT22;18003;-33.830;151.202;2023-03-31T02:23:14;21.30;92.80
25668;DHT22;18003;-33.830;151.202;2023-03-31T02:26:06;21.30;92.30
25668;DHT22;18003;-33.830;151.202;2023-03-31T02:28:32;21.40;92.90
25668;DHT22;18003;-33.830;151.202;2023-03-31T02:33:40;21.40;93.00
25668;DHT22;18003;-33.830;151.202;2023-03-31T02:36:10;21.30;93.10
25668;DHT22;18003;-33.830;151.202;2023-03-31T02:38:49;21.40;92.40
25668;DHT22;18003;-33.830;151.202;2023-03-31T02:41:16;21.40;92.80
25668;DHT22;18003;-33.830;151.202;2023-03-31T02:43:46;21.40;92.70
25668;DHT22;18003;-33.830;151.202;2023-03-31T02:46:16;21.40;92.00
25668;DHT22;18003;-33.830;151.202;2023-03-31T02:48:52;21.40;92.00
25668;DHT22;18003;-33.830;151.202;2023-03-31T03:02:55;21.50;91.30
25668;DHT22;18003;-33.830;151.202;2023-03-31T03:05:41;21.50;91.60
25668;DHT22;18003;-33.830;151.202;2023-03-31T03:11:07;21.50;91.80
25668;DHT22;18003;-33.830;151.202;2023-03-31T03:16:16;21.60;91.60
25668;DHT22;18003;-33.830;151.202;2023-03-31T03:21:27;21.60;92.10
25668;DHT22;18003;-33.830;151.202;2023-03-31T03:23:57;21.50;91.90
25668;DHT22;18003;-33.830;151.202;2023-03-31T03:26:28;21.60;92.10
25668;DHT22;18003;-33.830;151.202;2023-03-31T03:28:59;21.60;92.20
25668;DHT22;18003;-33.830;151.202;2023-03-31T03:31:29;21.60;92.10
25668;DHT22;18003;-33.830;151.202;2023-03-31T03:34:00;21.60;91.90
25668;DHT22;18003;-33.830;151.202;2023-03-31T03:36:31;21.60;91.20
25668;DHT22;18003;-33.830;151.202;2023-03-31T03:39:01;21.70;92.10
25668;DHT22;18003;-33.830;151.202;2023-03-31T03:41:31;21.70;91.50
25668;DHT22;18003;-33.830;151.202;2023-03-31T03:44:01;21.70;91.60
25668;DHT22;18003;-33.830;151.202;2023-03-31T03:46:31;21.70;91.70
25668;DHT22;18003;-33.830;151.202;2023-03-31T03:49:01;21.70;92.60
25668;DHT22;18003;-33.830;151.202;2023-03-31T03:51:31;21.70;93.10
25668;DHT22;18003;-33.830;151.202;2023-03-31T03:54:01;21.80;93.30
25668;DHT22;18003;-33.830;151.202;2023-03-31T03:56:31;21.80;93.20
25668;DHT22;18003;-33.830;151.202;2023-03-31T03:59:01;21.80;93.80
25668;DHT22;18003;-33.830;151.202;2023-03-31T04:01:31;21.70;93.60
25668;DHT22;18003;-33.830;151.202;2023-03-31T04:04:01;21.70;93.60
25668;DHT22;18003;-33.830;151.202;2023-03-31T04:06:31;21.70;93.60
25668;DHT22;18003;-33.830;151.202;2023-03-31T04:09:01;21.70;94.00
25668;DHT22;18003;-33.830;151.202;2023-03-31T04:11:32;21.70;93.80
25668;DHT22;18003;-33.830;151.202;2023-03-31T04:14:02;21.70;94.10
25668;DHT22;18003;-33.830;151.202;2023-03-31T04:16:32;21.70;94.20
25668;DHT22;18003;-33.830;151.202;2023-03-31T04:19:02;21.70;94.30
25668;DHT22;18003;-33.830;151.202;2023-03-31T04:21:32;21.70;94.50
25668;DHT22;18003;-33.830;151.202;2023-03-31T04:24:07;21.70;94.10
25668;DHT22;18003;-33.830;151.202;2023-03-31T04:26:36;21.70;94.50
25668;DHT22;18003;-33.830;151.202;2023-03-31T04:29:13;21.70;94.30
25668;DHT22;18003;-33.830;151.202;2023-03-31T04:31:47;21.70;94.30
25668;DHT22;18003;-33.830;151.202;2023-03-31T04:34:19;21.70;94.80
25668;DHT22;18003;-33.830;151.202;2023-03-31T04:36:49;21.70;94.80
25668;DHT22;18003;-33.830;151.202;2023-03-31T04:39:20;21.70;94.90
25668;DHT22;18003;-33.830;151.202;2023-03-31T04:41:51;21.70;95.20
25668;DHT22;18003;-33.830;151.202;2023-03-31T04:44:21;21.70;94.80
25668;DHT22;18003;-33.830;151.202;2023-03-31T04:46:51;21.60;94.70
25668;DHT22;18003;-33.830;151.202;2023-03-31T04:49:21;21.60;94.90
25668;DHT22;18003;-33.830;151.202;2023-03-31T04:51:51;21.60;94.70
25668;DHT22;18003;-33.830;151.202;2023-03-31T04:54:22;21.60;94.60
25668;DHT22;18003;-33.830;151.202;2023-03-31T04:56:52;21.60;94.50
25668;DHT22;18003;-33.830;151.202;2023-03-31T04:59:22;21.60;94.70
25668;DHT22;18003;-33.830;151.202;2023-03-31T05:01:51;21.70;94.70
25668;DHT22;18003;-33.830;151.202;2023-03-31T05:04:22;21.60;94.60
25668;DHT22;18003;-33.830;151.202;2023-03-31T05:06:52;21.60;94.60
25668;DHT22;18003;-33.830;151.202;2023-03-31T05:09:22;21.60;94.70
25668;DHT22;18003;-33.830;151.202;2023-03-31T05:11:52;21.60;94.80
25668;DHT22;18003;-33.830;151.202;2023-03-31T05:14:22;21.60;94.60
25668;DHT22;18003;-33.830;151.202;2023-03-31T05:16:53;21.60;95.10
25668;DHT22;18003;-33.830;151.202;2023-03-31T05:19:24;21.60;94.50
25668;DHT22;18003;-33.830;151.202;2023-03-31T05:21:54;21.60;94.70
25668;DHT22;18003;-33.830;151.202;2023-03-31T05:24:24;21.60;94.50
25668;DHT22;18003;-33.830;151.202;2023-03-31T05:26:56;21.60;94.30
25668;DHT22;18003;-33.830;151.202;2023-03-31T05:29:26;21.60;94.30
25668;DHT22;18003;-33.830;151.202;2023-03-31T05:31:56;21.60;94.50
25668;DHT22;18003;-33.830;151.202;2023-03-31T05:34:26;21.60;94.30
25668;DHT22;18003;-33.830;151.202;2023-03-31T05:36:56;21.50;94.30
25668;DHT22;18003;-33.830;151.202;2023-03-31T05:39:26;21.60;94.40
25668;DHT22;18003;-33.830;151.202;2023-03-31T05:41:57;21.60;94.30
25668;DHT22;18003;-33.830;151.202;2023-03-31T05:44:27;21.60;94.40
25668;DHT22;18003;-33.830;151.202;2023-03-31T05:46:57;21.60;94.30
25668;DHT22;18003;-33.830;151.202;2023-03-31T05:49:27;21.60;94.10
25668;DHT22;18003;-33.830;151.202;2023-03-31T05:51:57;21.50;94.50
25668;DHT22;18003;-33.830;151.202;2023-03-31T05:54:27;21.60;94.50
25668;DHT22;18003;-33.830;151.202;2023-03-31T05:56:57;21.50;94.20
25668;DHT22;18003;-33.830;151.202;2023-03-31T05:59:27;21.50;94.70
25668;DHT22;18003;-33.830;151.202;2023-03-31T06:01:58;21.50;94.40
25668;DHT22;18003;-33.830;151.202;2023-03-31T06:04:28;21.60;94.60
25668;DHT22;18003;-33.830;151.202;2023-03-31T06:07:00;21.50;94.20
25668;DHT22;18003;-33.830;151.202;2023-03-31T06:09:30;21.60;94.20
25668;DHT22;18003;-33.830;151.202;2023-03-31T06:12:00;21.50;94.70
25668;DHT22;18003;-33.830;151.202;2023-03-31T06:14:30;21.50;94.50
25668;DHT22;18003;-33.830;151.202;2023-03-31T06:17:00;21.50;94.50
25668;DHT22;18003;-33.830;151.202;2023-03-31T06:19:30;21.50;94.80
25668;DHT22;18003;-33.830;151.202;2023-03-31T06:22:00;21.50;94.40
25668;DHT22;18003;-33.830;151.202;2023-03-31T06:24:30;21.50;94.60
25668;DHT22;18003;-33.830;151.202;2023-03-31T06:27:00;21.60;94.70
25668;DHT22;18003;-33.830;151.202;2023-03-31T06:29:31;21.60;94.70
25668;DHT22;18003;-33.830;151.202;2023-03-31T06:32:00;21.60;94.80
25668;DHT22;18003;-33.830;151.202;2023-03-31T06:34:32;21.70;94.80
25668;DHT22;18003;-33.830;151.202;2023-03-31T06:37:02;21.70;94.90
25668;DHT22;18003;-33.830;151.202;2023-03-31T06:39:32;21.70;95.00
25668;DHT22;18003;-33.830;151.202;2023-03-31T06:42:02;21.70;94.90
25668;DHT22;18003;-33.830;151.202;2023-03-31T06:44:32;21.70;95.00
25668;DHT22;18003;-33.830;151.202;2023-03-31T06:47:02;21.70;95.10
25668;DHT22;18003;-33.830;151.202;2023-03-31T06:49:32;21.70;94.90
25668;DHT22;18003;-33.830;151.202;2023-03-31T06:52:02;21.70;95.00
25668;DHT22;18003;-33.830;151.202;2023-03-31T06:54:43;21.80;95.00
25668;DHT22;18003;-33.830;151.202;2023-03-31T06:57:09;21.80;95.10
25668;DHT22;18003;-33.830;151.202;2023-03-31T06:59:39;21.80;95.30
25668;DHT22;18003;-33.830;151.202;2023-03-31T07:02:13;21.70;95.20
25668;DHT22;18003;-33.830;151.202;2023-03-31T07:04:43;21.80;95.20
25668;DHT22;18003;-33.830;151.202;2023-03-31T07:07:13;21.80;95.20
25668;DHT22;18003;-33.830;151.202;2023-03-31T07:09:44;21.80;95.30
25668;DHT22;18003;-33.830;151.202;2023-03-31T07:12:14;21.80;95.30
25668;DHT22;18003;-33.830;151.202;2023-03-31T07:14:44;21.80;95.40
25668;DHT22;18003;-33.830;151.202;2023-03-31T07:17:14;21.70;95.50
25668;DHT22;18003;-33.830;151.202;2023-03-31T07:19:44;21.70;95.30
25668;DHT22;18003;-33.830;151.202;2023-03-31T07:22:15;21.70;95.30
25668;DHT22;18003;-33.830;151.202;2023-03-31T07:24:45;21.70;95.30
25668;DHT22;18003;-33.830;151.202;2023-03-31T07:27:14;21.70;95.30
25668;DHT22;18003;-33.830;151.202;2023-03-31T07:29:44;21.80;95.30
25668;DHT22;18003;-33.830;151.202;2023-03-31T07:32:14;21.80;95.30
25668;DHT22;18003;-33.830;151.202;2023-03-31T07:34:45;21.70;95.40
25668;DHT22;18003;-33.830;151.202;2023-03-31T07:37:16;21.70;95.40
25668;DHT22;18003;-33.830;151.202;2023-03-31T07:39:46;21.70;95.40
25668;DHT22;18003;-33.830;151.202;2023-03-31T07:42:16;21.70;95.40
25668;DHT22;18003;-33.830;151.202;2023-03-31T07:44:45;21.70;95.40
25668;DHT22;18003;-33.830;151.202;2023-03-31T07:47:15;21.70;95.40
25668;DHT22;18003;-33.830;151.202;2023-03-31T07:49:45;21.70;95.30
25668;DHT22;18003;-33.830;151.202;2023-03-31T07:52:15;21.70;95.60
25668;DHT22;18003;-33.830;151.202;2023-03-31T07:54:46;21.70;95.60
25668;DHT22;18003;-33.830;151.202;2023-03-31T07:57:16;21.70;95.60
25668;DHT22;18003;-33.830;151.202;2023-03-31T07:59:46;21.70;95.90
25668;DHT22;18003;-33.830;151.202;2023-03-31T08:02:16;21.70;96.00
25668;DHT22;18003;-33.830;151.202;2023-03-31T08:04:47;21.70;95.90
25668;DHT22;18003;-33.830;151.202;2023-03-31T08:07:17;21.70;96.30
25668;DHT22;18003;-33.830;151.202;2023-03-31T08:09:46;21.70;96.00
25668;DHT22;18003;-33.830;151.202;2023-03-31T08:12:17;21.70;96.00
25668;DHT22;18003;-33.830;151.202;2023-03-31T08:14:47;21.70;96.10
25668;DHT22;18003;-33.830;151.202;2023-03-31T08:17:17;21.70;96.00
25668;DHT22;18003;-33.830;151.202;2023-03-31T08:19:47;21.70;96.30
25668;DHT22;18003;-33.830;151.202;2023-03-31T08:22:18;21.70;96.60
25668;DHT22;18003;-33.830;151.202;2023-03-31T08:24:48;21.70;96.30
25668;DHT22;18003;-33.830;151.202;2023-03-31T08:27:17;21.70;96.30
25668;DHT22;18003;-33.830;151.202;2023-03-31T08:29:47;21.70;96.80
25668;DHT22;18003;-33.830;151.202;2023-03-31T08:32:17;21.70;96.90
25668;DHT22;18003;-33.830;151.202;2023-03-31T08:34:47;21.60;97.00
25668;DHT22;18003;-33.830;151.202;2023-03-31T08:37:17;21.60;97.10
25668;DHT22;18003;-33.830;151.202;2023-03-31T08:39:47;21.60;97.20
25668;DHT22;18003;-33.830;151.202;2023-03-31T08:45:06;21.50;97.40
25668;DHT22;18003;-33.830;151.202;2023-03-31T08:47:36;21.50;97.50
25668;DHT22;18003;-33.830;151.202;2023-03-31T08:50:12;21.50;97.60
25668;DHT22;18003;-33.830;151.202;2023-03-31T08:52:48;21.50;97.60
25668;DHT22;18003;-33.830;151.202;2023-03-31T08:55:19;21.50;97.70
25668;DHT22;18003;-33.830;151.202;2023-03-31T09:00:20;21.50;97.90
25668;DHT22;18003;-33.830;151.202;2023-03-31T09:03:04;21.60;97.90
25668;DHT22;18003;-33.830;151.202;2023-03-31T09:05:45;21.50;98.10
25668;DHT22;18003;-33.830;151.202;2023-03-31T09:10:58;21.50;98.40
25668;DHT22;18003;-33.830;151.202;2023-03-31T09:13:39;21.50;98.40
25668;DHT22;18003;-33.830;151.202;2023-03-31T09:19:07;21.50;98.40
25668;DHT22;18003;-33.830;151.202;2023-03-31T09:21:35;21.50;98.60
25668;DHT22;18003;-33.830;151.202;2023-03-31T09:27:00;21.50;98.60
25668;DHT22;18003;-33.830;151.202;2023-03-31T09:32:28;21.50;98.70
25668;DHT22;18003;-33.830;151.202;2023-03-31T09:35:11;21.40;98.90
25668;DHT22;18003;-33.830;151.202;2023-03-31T09:37:32;21.50;99.10
25668;DHT22;18003;-33.830;151.202;2023-03-31T09:40:04;21.40;98.90
25668;DHT22;18003;-33.830;151.202;2023-03-31T09:42:38;21.50;99.00
25668;DHT22;18003;-33.830;151.202;2023-03-31T09:45:17;21.50;99.00
25668;DHT22;18003;-33.830;151.202;2023-03-31T09:47:49;21.50;99.00
25668;DHT22;18003;-33.830;151.202;2023-03-31T09:50:17;21.50;99.10
25668;DHT22;18003;-33.830;151.202;2023-03-31T09:52:52;21.50;99.20
25668;DHT22;18003;-33.830;151.202;2023-03-31T09:55:36;21.50;99.30
25668;DHT22;18003;-33.830;151.202;2023-03-31T09:58:05;21.40;99.20
25668;DHT22;18003;-33.830;151.202;2023-03-31T10:00:35;21.40;99.30
25668;DHT22;18003;-33.830;151.202;2023-03-31T10:03:05;21.50;99.40
25668;DHT22;18003;-33.830;151.202;2023-03-31T10:05:47;21.40;99.30
25668;DHT22;18003;-33.830;151.202;2023-03-31T10:16:08;21.40;99.80
25668;DHT22;18003;-33.830;151.202;2023-03-31T10:18:39;21.40;99.70
25668;DHT22;18003;-33.830;151.202;2023-03-31T10:21:25;21.40;99.80
25668;DHT22;18003;-33.830;151.202;2023-03-31T10:23:56;21.40;99.80
25668;DHT22;18003;-33.830;151.202;2023-03-31T10:26:27;21.40;99.70
25668;DHT22;18003;-33.830;151.202;2023-03-31T10:28:57;21.40;99.80
25668;DHT22;18003;-33.830;151.202;2023-03-31T10:31:37;21.40;99.90
25668;DHT22;18003;-33.830;151.202;2023-03-31T10:34:00;21.40;99.90
25668;DHT22;18003;-33.830;151.202;2023-03-31T10:36:30;21.40;99.90
25668;DHT22;18003;-33.830;151.202;2023-03-31T10:39:04;21.40;99.90
25668;DHT22;18003;-33.830;151.202;2023-03-31T10:41:32;21.40;99.90
25668;DHT22;18003;-33.830;151.202;2023-03-31T10:44:03;21.40;99.90
25668;DHT22;18003;-33.830;151.202;2023-03-31T10:46:49;21.30;99.90
25668;DHT22;18003;-33.830;151.202;2023-03-31T10:49:24;21.30;99.90
25668;DHT22;18003;-33.830;151.202;2023-03-31T10:52:00;21.30;99.90
25668;DHT22;18003;-33.830;151.202;2023-03-31T10:54:30;21.30;99.90
25668;DHT22;18003;-33.830;151.202;2023-03-31T10:57:01;21.30;99.90
25668;DHT22;18003;-33.830;151.202;2023-03-31T11:02:57;21.30;99.90
25668;DHT22;18003;-33.830;151.202;2023-03-31T11:08:25;21.40;99.90
25668;DHT22;18003;-33.830;151.202;2023-03-31T11:11:22;21.40;99.90
25668;DHT22;18003;-33.830;151.202;2023-03-31T11:16:55;21.30;99.90
25668;DHT22;18003;-33.830;151.202;2023-03-31T11:19:32;21.40;99.90
25668;DHT22;18003;-33.830;151.202;2023-03-31T11:36:27;21.30;99.90
25668;DHT22;18003;-33.830;151.202;2023-03-31T11:39:09;21.30;99.90
25668;DHT22;18003;-33.830;151.202;2023-03-31T11:41:40;21.30;99.90
25668;DHT22;18003;-33.830;151.202;2023-03-31T11:44:12;21.30;99.90
25668;DHT22;18003;-33.830;151.202;2023-03-31T11:49:32;21.30;99.90
25668;DHT22;18003;-33.830;151.202;2023-03-31T11:52:08;21.30;99.90
25668;DHT22;18003;-33.830;151.202;2023-03-31T11:54:54;21.30;99.90
25668;DHT22;18003;-33.830;151.202;2023-03-31T11:57:32;21.20;99.90
25668;DHT22;18003;-33.830;151.202;2023-03-31T12:00:15;21.20;99.90
25668;DHT22;18003;-33.830;151.202;2023-03-31T12:05:25;21.20;99.90
25668;DHT22;18003;-33.830;151.202;2023-03-31T12:08:23;21.20;99.90
25668;DHT22;18003;-33.830;151.202;2023-03-31T12:10:38;21.20;99.90
25668;DHT22;18003;-33.830;151.202;2023-03-31T12:13:30;21.20;99.90
25668;DHT22;18003;-33.830;151.202;2023-03-31T12:18:48;21.20;99.90
25668;DHT22;18003;-33.830;151.202;2023-03-31T12:21:15;21.20;99.90
25668;DHT22;18003;-33.830;151.202;2023-03-31T12:23:45;21.20;99.90
25668;DHT22;18003;-33.830;151.202;2023-03-31T12:29:20;21.20;99.90
25668;DHT22;18003;-33.830;151.202;2023-03-31T12:31:46;21.20;99.90
25668;DHT22;18003;-33.830;151.202;2023-03-31T12:34:18;21.10;99.90
25668;DHT22;18003;-33.830;151.202;2023-03-31T12:37:07;21.10;99.90
25668;DHT22;18003;-33.830;151.202;2023-03-31T12:39:55;21.10;99.90
25668;DHT22;18003;-33.830;151.202;2023-03-31T12:42:47;21.10;99.90
25668;DHT22;18003;-33.830;151.202;2023-03-31T12:45:30;21.10;99.90
25668;DHT22;18003;-33.830;151.202;2023-03-31T12:51:14;21.10;99.90
25668;DHT22;18003;-33.830;151.202;2023-03-31T12:56:29;21.10;99.90
25668;DHT22;18003;-33.830;151.202;2023-03-31T12:59:16;21.10;99.90
25668;DHT22;18003;-33.830;151.202;2023-03-31T13:01:30;21.10;99.90
25668;DHT22;18003;-33.830;151.202;2023-03-31T13:04:19;21.00;99.90
25668;DHT22;18003;-33.830;151.202;2023-03-31T13:06:54;21.00;99.90
25668;DHT22;18003;-33.830;151.202;2023-03-31T13:09:46;21.10;99.90
25668;DHT22;18003;-33.830;151.202;2023-03-31T13:12:22;21.00;99.90
25668;DHT22;18003;-33.830;151.202;2023-03-31T13:14:55;21.00;99.90
25668;DHT22;18003;-33.830;151.202;2023-03-31T13:17:29;21.00;99.90
25668;DHT22;18003;-33.830;151.202;2023-03-31T13:22:47;21.00;99.90
25668;DHT22;18003;-33.830;151.202;2023-03-31T13:25:45;21.00;99.90
25668;DHT22;18003;-33.830;151.202;2023-03-31T13:31:03;20.90;99.90
25668;DHT22;18003;-33.830;151.202;2023-03-31T13:45:00;20.90;99.90
25668;DHT22;18003;-33.830;151.202;2023-03-31T13:47:56;20.90;99.90
25668;DHT22;18003;-33.830;151.202;2023-03-31T13:50:31;20.90;99.90
25668;DHT22;18003;-33.830;151.202;2023-03-31T13:58:38;20.80;99.90
25668;DHT22;18003;-33.830;151.202;2023-03-31T14:01:32;20.80;99.90
25668;DHT22;18003;-33.830;151.202;2023-03-31T14:06:53;20.80;99.90
25668;DHT22;18003;-33.830;151.202;2023-03-31T14:09:24;20.80;99.90
25668;DHT22;18003;-33.830;151.202;2023-03-31T14:11:54;20.80;99.90
25668;DHT22;18003;-33.830;151.202;2023-03-31T14:14:26;20.80;99.90
25668;DHT22;18003;-33.830;151.202;2023-03-31T14:17:03;20.80;99.90
25668;DHT22;18003;-33.830;151.202;2023-03-31T14:30:32;20.70;99.90
25668;DHT22;18003;-33.830;151.202;2023-03-31T14:38:30;20.60;99.90
25668;DHT22;18003;-33.830;151.202;2023-03-31T14:41:00;20.60;99.90
25668;DHT22;18003;-33.830;151.202;2023-03-31T14:43:32;20.60;99.90
25668;DHT22;18003;-33.830;151.202;2023-03-31T14:46:04;20.60;99.90
25668;DHT22;18003;-33.830;151.202;2023-03-31T14:48:46;20.60;99.90
25668;DHT22;18003;-33.830;151.202;2023-03-31T14:51:14;20.60;99.90
25668;DHT22;18003;-33.830;151.202;2023-03-31T14:53:44;20.60;99.90
25668;DHT22;18003;-33.830;151.202;2023-03-31T14:56:15;20.60;99.90
25668;DHT22;18003;-33.830;151.202;2023-03-31T14:58:48;20.50;99.90
25668;DHT22;18003;-33.830;151.202;2023-03-31T15:01:24;20.60;99.90
25668;DHT22;18003;-33.830;151.202;2023-03-31T15:03:52;20.50;99.90
25668;DHT22;18003;-33.830;151.202;2023-03-31T15:06:23;20.50;99.90
25668;DHT22;18003;-33.830;151.202;2023-03-31T15:08:55;20.50;99.90
25668;DHT22;18003;-33.830;151.202;2023-03-31T15:11:26;20.50;99.90
25668;DHT22;18003;-33.830;151.202;2023-03-31T15:13:57;20.50;99.90
25668;DHT22;18003;-33.830;151.202;2023-03-31T15:16:40;20.50;99.90
25668;DHT22;18003;-33.830;151.202;2023-03-31T15:19:22;20.40;99.90
25668;DHT22;18003;-33.830;151.202;2023-03-31T15:22:01;20.50;99.90
25668;DHT22;18003;-33.830;151.202;2023-03-31T15:24:31;20.50;99.90
25668;DHT22;18003;-33.830;151.202;2023-03-31T15:27:09;20.40;99.90
25668;DHT22;18003;-33.830;151.202;2023-03-31T15:29:44;20.40;99.90
25668;DHT22;18003;-33.830;151.202;2023-03-31T15:34:50;20.40;99.90
25668;DHT22;18003;-33.830;151.202;2023-03-31T15:37:25;20.40;99.90
25668;DHT22;18003;-33.830;151.202;2023-03-31T15:39:59;20.40;99.90
25668;DHT22;18003;-33.830;151.202;2023-03-31T15:42:32;20.40;99.90
25668;DHT22;18003;-33.830;151.202;2023-03-31T15:47:52;20.30;99.90
25668;DHT22;18003;-33.830;151.202;2023-03-31T15:50:23;20.30;99.90
25668;DHT22;18003;-33.830;151.202;2023-03-31T15:52:55;20.30;99.90
25668;DHT22;18003;-33.830;151.202;2023-03-31T15:55:29;20.30;99.90
25668;DHT22;18003;-33.830;151.202;2023-03-31T15:58:01;20.30;99.90
25668;DHT22;18003;-33.830;151.202;2023-03-31T16:00:44;20.30;99.90
25668;DHT22;18003;-33.830;151.202;2023-03-31T16:03:28;20.30;99.90
25668;DHT22;18003;-33.830;151.202;2023-03-31T16:06:00;20.30;99.90
25668;DHT22;18003;-33.830;151.202;2023-03-31T16:11:04;20.30;99.90
25668;DHT22;18003;-33.830;151.202;2023-03-31T16:13:36;20.30;99.90
25668;DHT22;18003;-33.830;151.202;2023-03-31T16:16:07;20.20;99.90
25668;DHT22;18003;-33.830;151.202;2023-03-31T16:18:45;20.20;99.90
25668;DHT22;18003;-33.830;151.202;2023-03-31T16:21:10;20.30;99.90
25668;DHT22;18003;-33.830;151.202;2023-03-31T16:23:41;20.30;99.90
25668;DHT22;18003;-33.830;151.202;2023-03-31T16:26:18;20.20;99.90
25668;DHT22;18003;-33.830;151.202;2023-03-31T16:28:48;20.30;99.90
25668;DHT22;18003;-33.830;151.202;2023-03-31T16:31:31;20.20;99.90
25668;DHT22;18003;-33.830;151.202;2023-03-31T16:34:04;20.20;99.90
25668;DHT22;18003;-33.830;151.202;2023-03-31T16:36:34;20.30;99.90
25668;DHT22;18003;-33.830;151.202;2023-03-31T16:39:05;20.30;99.90
25668;DHT22;18003;-33.830;151.202;2023-03-31T16:41:35;20.20;99.90
25668;DHT22;18003;-33.830;151.202;2023-03-31T16:44:06;20.30;99.90
25668;DHT22;18003;-33.830;151.202;2023-03-31T16:46:36;20.30;99.90
25668;DHT22;18003;-33.830;151.202;2023-03-31T16:49:06;20.30;99.90
25668;DHT22;18003;-33.830;151.202;2023-03-31T16:51:36;20.20;99.90
25668;DHT22;18003;-33.830;151.202;2023-03-31T16:54:06;20.30;99.90
25668;DHT22;18003;-33.830;151.202;2023-03-31T16:56:36;20.20;99.90
25668;DHT22;18003;-33.830;151.202;2023-03-31T16:59:06;20.30;99.90
25668;DHT22;18003;-33.830;151.202;2023-03-31T17:01:36;20.30;99.90
25668;DHT22;18003;-33.830;151.202;2023-03-31T17:04:06;20.20;99.90
25668;DHT22;18003;-33.830;151.202;2023-03-31T17:06:36;20.20;99.90
25668;DHT22;18003;-33.830;151.202;2023-03-31T17:09:06;20.20;99.90
25668;DHT22;18003;-33.830;151.202;2023-03-31T17:11:36;20.20;99.90
25668;DHT22;18003;-33.830;151.202;2023-03-31T17:14:06;20.20;99.90
25668;DHT22;18003;-33.830;151.202;2023-03-31T17:16:38;20.10;99.90
25668;DHT22;18003;-33.830;151.202;2023-03-31T17:19:08;20.20;99.90
25668;DHT22;18003;-33.830;151.202;2023-03-31T17:21:38;20.20;99.90
25668;DHT22;18003;-33.830;151.202;2023-03-31T17:24:08;20.10;99.90
25668;DHT22;18003;-33.830;151.202;2023-03-31T17:26:38;20.10;99.90
25668;DHT22;18003;-33.830;151.202;2023-03-31T17:29:09;20.10;99.90
25668;DHT22;18003;-33.830;151.202;2023-03-31T17:31:39;20.10;99.90
25668;DHT22;18003;-33.830;151.202;2023-03-31T17:34:09;20.10;99.90
25668;DHT22;18003;-33.830;151.202;2023-03-31T17:36:39;20.10;99.90
25668;DHT22;18003;-33.830;151.202;2023-03-31T17:39:10;20.00;99.90
25668;DHT22;18003;-33.830;151.202;2023-03-31T17:41:40;20.10;99.90
25668;DHT22;18003;-33.830;151.202;2023-03-31T17:44:10;20.00;99.90
25668;DHT22;18003;-33.830;151.202;2023-03-31T17:46:40;20.00;99.90
25668;DHT22;18003;-33.830;151.202;2023-03-31T17:49:10;20.00;99.90
25668;DHT22;18003;-33.830;151.202;2023-03-31T17:51:41;20.00;99.90
25668;DHT22;18003;-33.830;151.202;2023-03-31T17:54:11;20.00;99.90
25668;DHT22;18003;-33.830;151.202;2023-03-31T17:56:41;20.00;99.90
25668;DHT22;18003;-33.830;151.202;2023-03-31T17:59:12;20.00;99.90
25668;DHT22;18003;-33.830;151.202;2023-03-31T18:01:42;20.00;99.90
25668;DHT22;18003;-33.830;151.202;2023-03-31T18:04:12;20.00;99.90
25668;DHT22;18003;-33.830;151.202;2023-03-31T18:06:42;20.00;99.90